createdAt,value
2018-10-07T00:01:59.892Z,15.11
2018-10-07T00:04:27.427Z,15.05
2018-10-07T00:06:54.956Z,15.00
2018-10-07T00:09:22.896Z,15.04
2018-10-07T00:11:50.491Z,15.05
2018-10-07T00:14:18.050Z,15.03
2018-10-07T00:16:45.595Z,15.09
2018-10-07T00:19:13.120Z,15.12
2018-10-07T00:21:41.107Z,15.04
2018-10-07T00:24:08.639Z,15.07
2018-10-07T00:26:36.534Z,15.08
2018-10-07T00:29:04.145Z,15.08
2018-10-07T00:31:36.168Z,15.01
2018-10-07T00:34:04.104Z,14.94
2018-10-07T00:36:31.619Z,14.79
2018-10-07T00:38:59.156Z,14.63
2018-10-07T00:41:26.718Z,14.75
2018-10-07T00:43:54.246Z,14.61
2018-10-07T00:46:21.823Z,14.56
2018-10-07T00:48:49.355Z,14.39
2018-10-07T00:51:16.894Z,14.31
2018-10-07T00:53:44.467Z,14.31
2018-10-07T00:56:12.001Z,14.35
2018-10-07T00:58:39.578Z,14.21
2018-10-07T01:01:07.149Z,14.17
2018-10-07T01:03:34.693Z,14.24
2018-10-07T01:06:02.251Z,14.27
2018-10-07T01:08:29.824Z,14.38
2018-10-07T01:10:57.385Z,14.53
2018-10-07T01:13:24.954Z,14.45
2018-10-07T01:15:52.515Z,14.26
2018-10-07T01:18:20.082Z,14.26
2018-10-07T01:20:47.671Z,14.40
2018-10-07T01:23:15.234Z,14.18
2018-10-07T01:25:42.868Z,14.12
2018-10-07T01:28:10.397Z,14.08
2018-10-07T01:30:38.206Z,14.21
2018-10-07T01:33:05.723Z,14.06
2018-10-07T01:35:33.240Z,14.02
2018-10-07T01:38:00.781Z,13.86
2018-10-07T01:40:28.299Z,13.78
2018-10-07T01:42:55.978Z,13.84
2018-10-07T01:45:23.498Z,13.92
2018-10-07T01:47:51.019Z,13.78
2018-10-07T01:50:18.538Z,13.72
2018-10-07T01:52:46.074Z,13.94
2018-10-07T01:55:13.600Z,13.84
2018-10-07T01:57:41.135Z,13.93
2018-10-07T02:00:08.998Z,13.89
2018-10-07T02:02:36.507Z,14.00
2018-10-07T02:05:04.116Z,13.72
2018-10-07T02:07:31.666Z,13.67
2018-10-07T02:09:59.186Z,13.60
2018-10-07T02:12:26.937Z,13.74
2018-10-07T02:14:54.451Z,13.83
2018-10-07T02:17:22.314Z,13.84
2018-10-07T02:19:49.850Z,13.92
2018-10-07T02:22:17.381Z,13.93
2018-10-07T02:24:44.925Z,13.93
2018-10-07T02:27:12.463Z,13.99
2018-10-07T02:29:40.000Z,13.91
2018-10-07T02:32:07.558Z,13.88
2018-10-07T02:34:35.078Z,13.87
2018-10-07T02:37:02.682Z,13.83
2018-10-07T02:39:30.205Z,13.65
2018-10-07T02:41:58.111Z,13.58
2018-10-07T02:44:25.669Z,13.48
2018-10-07T02:46:53.199Z,13.56
2018-10-07T02:49:20.739Z,13.46
2018-10-07T02:51:48.342Z,13.45
2018-10-07T02:54:16.227Z,13.43
2018-10-07T02:56:43.798Z,13.34
2018-10-07T02:59:11.450Z,13.30
2018-10-07T03:01:39.005Z,13.32
2018-10-07T03:04:06.593Z,13.35
2018-10-07T03:06:34.141Z,13.30
2018-10-07T03:09:01.674Z,13.34
2018-10-07T03:11:29.215Z,13.15
2018-10-07T03:13:56.839Z,13.09
2018-10-07T03:16:24.375Z,13.09
2018-10-07T03:18:51.918Z,13.15
2018-10-07T03:21:19.448Z,13.09
2018-10-07T03:23:47.007Z,13.02
2018-10-07T03:26:14.529Z,12.96
2018-10-07T03:28:42.124Z,13.06
2018-10-07T03:31:09.635Z,12.88
2018-10-07T03:33:37.155Z,12.82
2018-10-07T03:36:04.719Z,12.76
2018-10-07T03:38:32.289Z,12.73
2018-10-07T03:40:59.878Z,12.90
2018-10-07T03:43:27.417Z,12.83
2018-10-07T03:45:54.975Z,12.76
2018-10-07T03:48:22.530Z,12.75
2018-10-07T03:50:50.159Z,12.80
2018-10-07T03:53:17.674Z,12.93
2018-10-07T03:55:45.222Z,12.85
2018-10-07T03:58:12.731Z,12.66
2018-10-07T04:00:40.327Z,12.54
2018-10-07T04:03:07.887Z,12.48
2018-10-07T04:05:35.412Z,12.48
2018-10-07T04:08:03.294Z,12.44
2018-10-07T04:10:30.825Z,12.71
2018-10-07T04:12:58.339Z,12.82
2018-10-07T04:15:25.870Z,12.79
2018-10-07T04:17:53.391Z,12.76
2018-10-07T04:20:20.924Z,12.56
2018-10-07T04:22:48.442Z,12.45
2018-10-07T04:25:15.992Z,12.51
2018-10-07T04:27:43.551Z,12.38
2018-10-07T04:30:11.065Z,12.30
2018-10-07T04:32:38.593Z,12.23
2018-10-07T04:35:06.198Z,12.26
2018-10-07T04:37:33.715Z,12.36
2018-10-07T04:40:01.545Z,12.47
2018-10-07T04:42:29.061Z,12.38
2018-10-07T04:44:56.578Z,12.53
2018-10-07T04:47:24.135Z,12.59
2018-10-07T04:49:51.650Z,12.70
2018-10-07T04:52:19.183Z,12.66
2018-10-07T04:54:46.742Z,12.43
2018-10-07T04:57:14.288Z,12.26
2018-10-07T04:59:41.822Z,12.15
2018-10-07T05:02:09.404Z,12.22
2018-10-07T05:04:36.993Z,12.10
2018-10-07T05:07:04.544Z,12.07
2018-10-07T05:09:32.125Z,12.45
2018-10-07T05:12:00.838Z,12.52
2018-10-07T05:14:28.402Z,12.41
2018-10-07T05:16:55.990Z,12.33
2018-10-07T05:19:23.950Z,12.10
2018-10-07T05:21:51.502Z,12.20
2018-10-07T05:24:19.096Z,12.20
2018-10-07T05:26:46.631Z,12.14
2018-10-07T05:29:14.150Z,12.12
2018-10-07T05:31:42.057Z,12.01
2018-10-07T05:34:09.670Z,11.89
2018-10-07T05:36:37.210Z,11.85
2018-10-07T05:39:07.161Z,11.75
2018-10-07T05:41:34.738Z,11.84
2018-10-07T05:44:02.250Z,11.82
2018-10-07T05:46:29.965Z,11.86
2018-10-07T05:48:57.498Z,11.80
2018-10-07T05:51:25.031Z,11.82
2018-10-07T05:53:52.610Z,11.84
2018-10-07T05:56:20.146Z,11.86
2018-10-07T05:58:47.954Z,11.92
2018-10-07T06:01:17.863Z,11.87
2018-10-07T06:03:51.073Z,11.92
2018-10-07T06:06:18.675Z,11.91
2018-10-07T06:08:46.259Z,11.99
2018-10-07T06:11:13.814Z,12.02
2018-10-07T06:13:41.375Z,12.20
2018-10-07T06:16:08.922Z,12.47
2018-10-07T06:18:36.477Z,12.73
2018-10-07T06:21:04.202Z,12.96
2018-10-07T06:23:31.802Z,13.34
2018-10-07T06:25:59.363Z,13.77
2018-10-07T06:28:26.926Z,14.30
2018-10-07T06:30:54.451Z,14.48
2018-10-07T06:33:22.015Z,14.82
2018-10-07T06:35:49.607Z,15.06
2018-10-07T06:38:17.152Z,15.24
2018-10-07T06:40:45.060Z,15.47
2018-10-07T06:43:12.600Z,15.90
2018-10-07T06:45:40.156Z,16.30
2018-10-07T06:48:07.754Z,16.58
2018-10-07T06:50:35.356Z,16.64
2018-10-07T06:53:02.963Z,16.37
2018-10-07T06:55:30.503Z,16.28
2018-10-07T06:57:58.042Z,16.56
2018-10-07T07:00:25.599Z,16.48
2018-10-07T07:02:53.147Z,16.29
2018-10-07T07:05:20.714Z,16.46
2018-10-07T07:07:48.227Z,16.59
2018-10-07T07:10:15.907Z,16.56
2018-10-07T07:12:43.470Z,16.84
2018-10-07T07:15:11.052Z,16.77
2018-10-07T07:17:38.602Z,16.96
2018-10-07T07:20:06.442Z,17.26
2018-10-07T07:22:34.010Z,17.56
2018-10-07T07:25:01.546Z,18.37
2018-10-07T07:27:29.124Z,19.57
2018-10-07T07:29:56.674Z,20.56
2018-10-07T07:32:24.225Z,21.20
2018-10-07T07:34:52.080Z,21.57
2018-10-07T07:37:19.625Z,22.43
2018-10-07T07:39:47.244Z,22.93
2018-10-07T07:42:14.897Z,23.80
2018-10-07T07:44:42.383Z,24.48
2018-10-07T07:47:09.999Z,24.86
2018-10-07T07:49:37.570Z,25.31
2018-10-07T07:52:05.136Z,25.00
2018-10-07T07:54:32.722Z,25.24
2018-10-07T07:57:00.267Z,25.12
2018-10-07T07:59:27.859Z,25.32
2018-10-07T08:01:55.403Z,25.36
2018-10-07T08:04:22.942Z,26.23
2018-10-07T08:06:50.501Z,27.43
2018-10-07T08:09:18.067Z,27.95
2018-10-07T08:11:45.599Z,28.53
2018-10-07T08:14:13.194Z,29.08
2018-10-07T08:16:40.763Z,30.23
2018-10-07T08:19:08.386Z,31.14
2018-10-07T08:21:35.963Z,31.63
2018-10-07T08:24:03.574Z,31.83
2018-10-07T08:26:31.122Z,32.24
2018-10-07T08:28:58.695Z,32.92
2018-10-07T08:31:26.281Z,33.57
2018-10-07T08:33:53.835Z,33.94
2018-10-07T08:36:21.418Z,33.77
2018-10-07T08:38:48.984Z,33.90
2018-10-07T08:41:16.546Z,34.66
2018-10-07T08:43:44.082Z,35.51
2018-10-07T08:46:11.699Z,36.24
2018-10-07T08:48:39.570Z,35.06
2018-10-07T08:51:07.167Z,35.47
2018-10-07T08:53:34.723Z,35.64
2018-10-07T08:56:02.437Z,34.78
2018-10-07T08:58:29.929Z,34.85
2018-10-07T09:00:57.842Z,34.92
2018-10-07T09:03:25.438Z,34.41
2018-10-07T09:05:53.004Z,33.99
2018-10-07T09:08:20.584Z,34.19
2018-10-07T09:10:48.146Z,34.15
2018-10-07T09:13:15.703Z,34.62
2018-10-07T09:15:43.258Z,34.77
2018-10-07T09:18:10.838Z,35.33
2018-10-07T09:20:38.398Z,35.88
2018-10-07T09:23:06.050Z,35.89
2018-10-07T09:25:33.688Z,36.89
2018-10-07T09:28:01.303Z,37.91
2018-10-07T09:30:29.324Z,36.93
2018-10-07T09:32:57.301Z,37.67
2018-10-07T09:35:24.761Z,38.11
2018-10-07T09:37:52.352Z,38.29
2018-10-07T09:40:19.907Z,37.30
2018-10-07T09:42:47.473Z,36.19
2018-10-07T09:45:15.061Z,35.81
2018-10-07T09:47:42.685Z,34.30
2018-10-07T09:50:10.265Z,33.52
2018-10-07T09:52:37.830Z,33.53
2018-10-07T09:55:05.415Z,35.01
2018-10-07T09:57:33.026Z,34.88
2018-10-07T10:00:00.579Z,34.75
2018-10-07T10:02:28.154Z,33.71
2018-10-07T10:04:55.739Z,34.69
2018-10-07T10:07:23.393Z,34.31
2018-10-07T10:09:50.954Z,34.43
2018-10-07T10:12:18.522Z,34.30
2018-10-07T10:14:46.085Z,34.41
2018-10-07T10:17:15.218Z,34.27
2018-10-07T10:19:52.772Z,32.99
2018-10-07T10:22:23.895Z,32.82
2018-10-07T10:24:57.167Z,33.18
2018-10-07T10:27:33.679Z,32.62
2018-10-07T10:30:02.103Z,32.65
2018-10-07T10:32:31.810Z,32.18
2018-10-07T10:35:10.098Z,31.40
2018-10-07T10:37:40.784Z,31.42
2018-10-07T10:40:44.330Z,31.35
2018-10-07T10:43:14.188Z,31.32
2018-10-07T10:46:49.658Z,30.02
2018-10-07T10:49:31.428Z,29.13
2018-10-07T10:52:31.167Z,28.40
2018-10-07T10:55:03.357Z,27.47
2018-10-07T10:57:32.994Z,26.55
2018-10-07T11:00:16.827Z,26.51
2018-10-07T11:02:49.980Z,25.90
2018-10-07T11:05:26.820Z,25.41
2018-10-07T11:08:00.592Z,25.14
2018-10-07T11:10:31.404Z,24.65
2018-10-07T11:13:10.494Z,24.22
2018-10-07T11:15:42.715Z,23.77
2018-10-07T11:18:11.131Z,23.53
2018-10-07T11:20:43.350Z,22.87
2018-10-07T11:23:32.222Z,22.61
2018-10-07T11:26:03.877Z,22.22
2018-10-07T11:28:37.818Z,22.34
2018-10-07T11:31:11.063Z,22.21
2018-10-07T11:34:11.973Z,22.23
2018-10-07T11:36:54.944Z,22.13
2018-10-07T11:39:28.030Z,22.34
2018-10-07T11:43:01.282Z,22.08
2018-10-07T11:45:30.487Z,22.06
2018-10-07T11:48:04.222Z,22.03
2018-10-07T11:50:36.519Z,22.12
2018-10-07T11:53:07.503Z,21.88
2018-10-07T11:55:35.126Z,21.90
2018-10-07T11:58:02.773Z,21.94
2018-10-07T12:00:30.319Z,21.83
2018-10-07T12:02:57.857Z,21.90
2018-10-07T12:05:25.429Z,22.12
2018-10-07T12:07:53.083Z,22.11
2018-10-07T12:10:20.962Z,21.74
2018-10-07T12:12:48.463Z,21.76
2018-10-07T12:15:16.043Z,21.89
2018-10-07T12:17:43.935Z,21.53
2018-10-07T12:20:11.500Z,21.78
2018-10-07T12:22:39.062Z,21.67
2018-10-07T12:25:06.705Z,21.55
2018-10-07T12:27:34.264Z,21.17
2018-10-07T12:30:01.836Z,21.20
2018-10-07T12:32:29.446Z,21.14
2018-10-07T12:34:57.021Z,21.35
2018-10-07T12:37:24.861Z,21.45
2018-10-07T12:39:52.396Z,21.52
2018-10-07T12:42:19.974Z,21.21
2018-10-07T12:44:47.639Z,21.03
2018-10-07T12:47:15.202Z,20.96
2018-10-07T12:49:42.744Z,21.01
2018-10-07T12:52:10.647Z,20.83
2018-10-07T12:54:38.290Z,20.69
2018-10-07T12:57:05.829Z,20.72
2018-10-07T12:59:33.407Z,20.73
2018-10-07T13:02:00.992Z,20.62
2018-10-07T13:04:28.907Z,20.70
2018-10-07T13:06:56.513Z,20.70
2018-10-07T13:09:24.067Z,20.85
2018-10-07T13:11:51.659Z,20.89
2018-10-07T13:14:19.231Z,20.78
2018-10-07T13:16:46.812Z,20.60
2018-10-07T13:19:14.417Z,20.61
2018-10-07T13:21:41.918Z,20.60
2018-10-07T13:24:09.518Z,20.86
2018-10-07T13:26:37.114Z,20.88
2018-10-07T13:29:04.669Z,20.97
2018-10-07T13:31:32.239Z,21.17
2018-10-07T13:33:59.797Z,21.23
2018-10-07T13:36:27.347Z,21.19
2018-10-07T13:38:54.948Z,21.25
2018-10-07T13:41:22.518Z,21.16
2018-10-07T13:43:50.097Z,21.39
2018-10-07T13:46:17.666Z,21.59
2018-10-07T13:48:45.242Z,21.40
2018-10-07T13:51:12.823Z,21.46
2018-10-07T13:53:40.456Z,21.54
2018-10-07T13:56:08.093Z,21.70
2018-10-07T13:58:35.732Z,21.55
2018-10-07T14:01:03.269Z,21.65
2018-10-07T14:03:30.911Z,21.69
2018-10-07T14:05:58.419Z,21.71
2018-10-07T14:08:26.006Z,21.54
2018-10-07T14:10:53.548Z,21.29
2018-10-07T14:13:21.378Z,21.25
2018-10-07T14:15:48.939Z,21.24
2018-10-07T14:18:16.509Z,21.04
2018-10-07T14:20:44.391Z,20.79
2018-10-07T14:23:11.948Z,20.75
2018-10-07T14:25:39.505Z,20.50
2018-10-07T14:28:07.193Z,20.36
2018-10-07T14:30:36.300Z,20.32
2018-10-07T14:33:05.031Z,20.28
2018-10-07T14:35:32.623Z,20.32
2018-10-07T14:38:00.218Z,20.35
2018-10-07T14:40:27.782Z,20.31
2018-10-07T14:42:55.375Z,20.34
2018-10-07T14:45:22.965Z,20.27
2018-10-07T14:47:50.529Z,20.38
2018-10-07T14:50:18.123Z,20.22
2018-10-07T14:52:45.700Z,20.27
2018-10-07T14:55:13.294Z,20.17
2018-10-07T14:57:40.867Z,20.12
2018-10-07T15:00:08.447Z,19.99
2018-10-07T15:02:36.003Z,20.03
2018-10-07T15:05:03.995Z,20.07
2018-10-07T15:07:31.879Z,19.91
2018-10-07T15:09:59.481Z,19.96
2018-10-07T15:12:27.288Z,19.86
2018-10-07T15:14:54.860Z,19.88
2018-10-07T15:17:22.431Z,19.81
2018-10-07T15:19:50.025Z,19.79
2018-10-07T15:22:17.602Z,19.80
2018-10-07T15:24:45.244Z,19.79
2018-10-07T15:27:12.797Z,19.81
2018-10-07T15:29:40.366Z,19.84
2018-10-07T15:32:07.944Z,19.84
2018-10-07T15:34:35.494Z,19.74
2018-10-07T15:37:04.777Z,19.89
2018-10-07T15:39:33.279Z,19.83
2018-10-07T15:42:01.741Z,19.89
2018-10-07T15:44:29.339Z,19.62
2018-10-07T15:46:56.889Z,19.63
2018-10-07T15:49:24.799Z,19.49
2018-10-07T15:51:52.366Z,19.56
2018-10-07T15:54:19.939Z,19.64
2018-10-07T15:56:47.633Z,19.36
2018-10-07T15:59:15.097Z,19.35
2018-10-07T16:01:42.655Z,19.38
2018-10-07T16:04:10.311Z,19.33
2018-10-07T16:06:37.868Z,19.41
2018-10-07T16:09:06.584Z,19.26
2018-10-07T16:11:34.198Z,19.26
2018-10-07T16:14:01.755Z,19.15
2018-10-07T16:16:29.374Z,19.06
2018-10-07T16:18:58.030Z,18.93
2018-10-07T16:21:25.675Z,18.90
2018-10-07T16:23:53.322Z,18.86
2018-10-07T16:26:20.943Z,18.83
2018-10-07T16:28:48.535Z,18.74
2018-10-07T16:31:16.085Z,18.76
2018-10-07T16:33:43.659Z,18.80
2018-10-07T16:36:11.580Z,18.72
2018-10-07T16:38:39.111Z,18.57
2018-10-07T16:41:06.763Z,18.61
2018-10-07T16:43:34.338Z,18.22
2018-10-07T16:46:02.034Z,18.34
2018-10-07T16:48:30.295Z,18.11
2018-10-07T16:50:57.891Z,18.06
2018-10-07T16:53:25.487Z,18.10
2018-10-07T16:55:53.050Z,18.03
2018-10-07T16:58:20.619Z,18.07
2018-10-07T17:00:48.276Z,17.94
2018-10-07T17:03:15.862Z,17.78
2018-10-07T17:05:43.441Z,17.81
2018-10-07T17:08:11.049Z,17.80
2018-10-07T17:10:38.650Z,17.81
2018-10-07T17:13:06.298Z,17.77
2018-10-07T17:15:33.820Z,17.79
2018-10-07T17:18:01.453Z,17.67
2018-10-07T17:20:29.048Z,17.69
2018-10-07T17:22:56.775Z,17.76
2018-10-07T17:25:24.355Z,17.73
2018-10-07T17:27:51.919Z,17.69
2018-10-07T17:30:19.661Z,17.59
2018-10-07T17:32:47.246Z,17.52
2018-10-07T17:35:14.852Z,17.51
2018-10-07T17:37:42.412Z,17.39
2018-10-07T17:40:10.002Z,17.23
2018-10-07T17:42:37.623Z,17.02
2018-10-07T17:45:05.175Z,16.94
2018-10-07T17:47:32.753Z,16.82
2018-10-07T17:50:00.315Z,16.86
2018-10-07T17:52:27.887Z,16.81
2018-10-07T17:54:55.691Z,16.79
2018-10-07T17:57:23.154Z,16.81
2018-10-07T17:59:50.737Z,16.75
2018-10-07T18:02:18.700Z,16.76
2018-10-07T18:04:46.238Z,16.69
2018-10-07T18:07:13.782Z,16.60
2018-10-07T18:09:41.390Z,16.56
2018-10-07T18:12:08.944Z,16.57
2018-10-07T18:14:36.501Z,16.54
2018-10-07T18:17:04.071Z,16.69
2018-10-07T18:19:31.811Z,16.63
2018-10-07T18:21:59.412Z,16.55
2018-10-07T18:24:26.958Z,16.36
2018-10-07T18:26:54.583Z,16.35
2018-10-07T18:29:22.159Z,16.21
2018-10-07T18:31:50.015Z,16.32
2018-10-07T18:34:17.702Z,16.29
2018-10-07T18:36:45.193Z,16.34
2018-10-07T18:39:12.802Z,16.21
2018-10-07T18:41:40.400Z,16.27
2018-10-07T18:44:08.653Z,16.12
2018-10-07T18:46:36.207Z,16.04
2018-10-07T18:49:04.055Z,15.98
2018-10-07T18:51:31.646Z,15.96
2018-10-07T18:53:59.248Z,16.00
2018-10-07T18:56:26.827Z,15.88
2018-10-07T18:58:54.423Z,15.82
2018-10-07T19:01:22.071Z,15.77
2018-10-07T19:03:49.683Z,15.78
2018-10-07T19:06:17.304Z,15.69
2018-10-07T19:08:45.157Z,15.55
2018-10-07T19:11:12.908Z,15.54
2018-10-07T19:13:40.501Z,15.60
2018-10-07T19:16:08.100Z,15.61
2018-10-07T19:18:35.706Z,15.55
2018-10-07T19:21:03.427Z,15.45
2018-10-07T19:23:30.911Z,15.43
2018-10-07T19:25:58.551Z,15.44
2018-10-07T19:28:26.139Z,15.35
2018-10-07T19:30:53.715Z,15.39
2018-10-07T19:33:21.359Z,15.41
2018-10-07T19:35:48.963Z,15.30
2018-10-07T19:38:16.551Z,15.21
2018-10-07T19:40:44.115Z,15.21
2018-10-07T19:43:11.677Z,15.26
2018-10-07T19:45:39.258Z,15.09
2018-10-07T19:48:06.919Z,14.97
2018-10-07T19:50:34.490Z,14.81
2018-10-07T19:53:02.351Z,14.83
2018-10-07T19:55:29.890Z,14.80
2018-10-07T19:57:57.421Z,14.87
2018-10-07T20:00:25.287Z,14.67
2018-10-07T20:02:52.835Z,14.89
2018-10-07T20:05:20.369Z,14.77
2018-10-07T20:07:47.968Z,14.72
2018-10-07T20:10:15.547Z,14.69
2018-10-07T20:12:43.143Z,14.64
2018-10-07T20:15:10.988Z,14.65
2018-10-07T20:17:38.566Z,14.51
2018-10-07T20:20:06.239Z,14.57
2018-10-07T20:22:33.821Z,14.50
2018-10-07T20:25:01.416Z,14.62
2018-10-07T20:27:29.048Z,14.59
2018-10-07T20:29:56.932Z,14.45
2018-10-07T20:32:24.451Z,14.46
2018-10-07T20:34:52.030Z,14.36
2018-10-07T20:37:19.891Z,14.36
2018-10-07T20:39:47.459Z,14.30
2018-10-07T20:42:14.983Z,14.23
2018-10-07T20:44:42.545Z,14.24
2018-10-07T20:47:10.094Z,14.27
2018-10-07T20:49:38.338Z,14.12
2018-10-07T20:52:05.931Z,14.24
2018-10-07T20:54:33.484Z,14.09
2018-10-07T20:57:01.056Z,14.06
2018-10-07T20:59:28.983Z,14.07
2018-10-07T21:01:56.581Z,13.98
2018-10-07T21:04:24.138Z,13.96
2018-10-07T21:06:51.705Z,13.90
2018-10-07T21:09:19.258Z,13.85
2018-10-07T21:11:46.887Z,13.85
2018-10-07T21:14:14.433Z,13.85
2018-10-07T21:16:42.027Z,13.90
2018-10-07T21:19:09.569Z,13.84
2018-10-07T21:21:37.081Z,13.79
2018-10-07T21:24:04.890Z,13.79
2018-10-07T21:26:32.445Z,13.70
2018-10-07T21:29:00.002Z,13.75
2018-10-07T21:31:27.590Z,13.65
2018-10-07T21:33:55.202Z,13.56
2018-10-07T21:36:22.755Z,13.57
2018-10-07T21:38:50.331Z,13.54
2018-10-07T21:41:18.210Z,13.48
2018-10-07T21:43:45.734Z,13.58
2018-10-07T21:46:13.284Z,13.48
2018-10-07T21:48:40.852Z,13.48
2018-10-07T21:51:08.382Z,13.37
2018-10-07T21:53:36.987Z,13.47
2018-10-07T21:56:04.537Z,13.48
2018-10-07T21:58:32.070Z,13.52
2018-10-07T22:01:00.781Z,13.46
2018-10-07T22:03:28.350Z,13.38
2018-10-07T22:05:55.917Z,13.47
2018-10-07T22:08:23.474Z,13.45
2018-10-07T22:10:51.006Z,13.63
2018-10-07T22:13:18.530Z,13.47
2018-10-07T22:15:46.103Z,13.27
2018-10-07T22:18:13.663Z,13.17
2018-10-07T22:20:41.272Z,13.28
2018-10-07T22:23:08.834Z,13.30
2018-10-07T22:25:36.375Z,13.33
2018-10-07T22:28:03.907Z,13.47
2018-10-07T22:30:31.470Z,13.45
2018-10-07T22:32:59.025Z,13.47
2018-10-07T22:35:26.615Z,13.28
2018-10-07T22:37:54.156Z,13.09
2018-10-07T22:40:22.747Z,13.03
2018-10-07T22:42:50.267Z,13.05
2018-10-07T22:45:17.778Z,13.03
2018-10-07T22:47:45.683Z,12.97
2018-10-07T22:50:13.222Z,12.90
2018-10-07T22:52:40.753Z,12.96
2018-10-07T22:55:08.298Z,12.85
2018-10-07T22:57:35.843Z,12.76
2018-10-07T23:00:04.575Z,12.70
2018-10-07T23:02:32.106Z,12.70
2018-10-07T23:04:59.655Z,12.70
2018-10-07T23:07:27.206Z,12.75
2018-10-07T23:09:54.757Z,12.85
2018-10-07T23:12:22.330Z,12.87
2018-10-07T23:14:49.852Z,12.83
2018-10-07T23:17:17.447Z,12.88
2018-10-07T23:19:45.098Z,12.76
2018-10-07T23:22:12.605Z,12.74
2018-10-07T23:24:40.162Z,12.68
2018-10-07T23:27:07.678Z,12.62
2018-10-07T23:29:35.206Z,12.67
2018-10-07T23:32:02.732Z,12.71
2018-10-07T23:34:30.243Z,12.67
2018-10-07T23:36:57.803Z,12.76
2018-10-07T23:39:25.332Z,12.69
2018-10-07T23:41:52.902Z,12.74
2018-10-07T23:44:20.514Z,12.84
2018-10-07T23:46:48.055Z,12.78
2018-10-07T23:49:15.621Z,12.79
2018-10-07T23:51:43.258Z,12.78
2018-10-07T23:54:10.724Z,12.69
2018-10-07T23:56:38.295Z,12.65
2018-10-07T23:59:05.842Z,12.65
